AirNav   MODERNIZE NOT PRIVATIZE ATC
 
 948 users online  

61GA Pea Patch Aerodrome
Blythe, Georgia, USA

GOING TO BLYTHE?


FAA INFORMATION EFFECTIVE 20 JULY 2017

Location

FAA Identifier: 61GA
Lat/Long: 33-18-06.5120N / 082-10-20.4340W
33-18.108533N / 082-10.340567W
33.3018089 / -82.1723428
(estimated)
Elevation: 434 ft. / 132 m (estimated)
Variation: 03W (1985)
From city: 2 miles N of BLYTHE, GA
Time zone: UTC -4 (UTC -5 during Standard Time)
Zip code: 30805

Airport Operations

Airport use: Private use. Permission required prior to landing
Activation date: 01/1987
Control tower: no
ARTCC: ATLANTA CENTER
FSS: MACON FLIGHT SERVICE STATION
Attendance: UNATNDD
Wind indicator: yes
Segmented circle: no

Airport Communications

WX ASOS at AGS (11 nm E): PHONE 706-790-0631
WX ASOS at DNL (12 nm NE): 135.275 (706-481-8629)

Nearby radio navigation aids

VOR radial/distance  VOR name  Freq  Var
IRQr185/24.3COLLIERS VORTAC113.9004W

 
NDB name  Hdg/Dist  Freq  Var  ID
BUSHE279/11.323304WAG .- --.
EMORY226/13.138504WEMR . -- .-.
MILLEN342/26.520505WLNH .-.. -. ....
AIKEN236/32.534706WAIK .- .. -.-

Airport Services

Runway Information

Runway 18/36

Dimensions: 2500 x 200 ft. / 762 x 61 m
Surface: turf
RUNWAY 18  RUNWAY 36
Traffic pattern: leftleft
Obstructions: none60 ft. tree, 300 ft. from runway

Airport Ownership and Management from official FAA records

Ownership: Privately-owned
Owner: PEA PATCH AERODROME INC.
C/O DENNIS ALLEN, 3031 LONSDALE DR
AUGUSTA, GA 30906
Phone 706-592-7244
Manager: ED CHRISTIAN
4511 BOULINEAU RD
BLYTHE, GA 30805
Phone 706-790-0511

Airport Operational Statistics

Aircraft based on the field: 27
Single engine airplanes: 25
Ultralights: 2
    

Instrument Procedures

There are no published instrument procedures at 61GA.

Some nearby airports with instrument procedures:

KAGS - Augusta Regional Airport at Bush Field (11 nm E)
KDNL - Daniel Field Airport (12 nm NE)
KBXG - Burke County Airport (18 nm SE)
KHQU - Thomson-McDuffie County Airport (22 nm NW)
2J5 - Millen Airport (27 nm SE)
 
Loc | Ops | Rwys | IFR | FBO | Links
Com | Nav | Svcs | Stats | Notes


 
Area around 61GA (Pea Patch Aerodrome)
 
Road maps at: MapQuest Bing Google
 
Aerial photo
WARNING: Photo may not be current or correct
Aerial photo of 61GA (Pea Patch Aerodrome)
Photo by Steven Amster
Taken in March 2015
looking northeast.

Do you have a better or more recent aerial photo of Pea Patch Aerodrome that you would like to share? If so, please send us your photo.

 
Sectional chart

 
Airport distance calculator
Flying to Pea Patch Aerodrome? Find the distance to fly.

From to 61GA

Sunrise and sunset
Times for 26-Jul-2017
 Local
(UTC-4)
 Zulu
(UTC)
Morning civil twilight06:1110:11
Sunrise06:3810:38
Sunset20:3200:32
Evening civil twilight21:0001:00

Current date and time
Zulu (UTC)  27-Jul-2017 01:48:26
Local (UTC-4)  26-Jul-2017 21:48:26
 
METAR
KAGS 
11nm E 
270125Z 00000KT 8SM FEW006 26/24 A3006 RMK AO2 T02560239
KDNL 
12nm NE 
270053Z AUTO 00000KT 10SM CLR 26/22 A3008 RMK AO2 SLP181 T02560222
KHQU 
22nm NW 
270135Z AUTO 00000KT 7SM CLR 24/23 A3013 RMK AO2 T02360231
TAF
KAGS 
11nm E 
262031Z 2621/2718 VRB05KT P6SM VCTS BKN035CB TEMPO 2621/2622 3SM TSRA OVC025CB FM270100 VRB03KT P6SM SCT040 FM271000 VRB03KT 2SM BR BKN006 FM271400 14005KT P6SM SCT020
KDNL 
12nm NE 
262031Z 2621/2718 VRB05KT P6SM VCTS BKN035CB TEMPO 2621/2622 3SM TSRA OVC020CB FM270100 VRB04KT P6SM SCT040 FM271000 VRB03KT 4SM BR BKN008 FM271400 14005KT P6SM SCT020
NOTAMs
Click for the latest NOTAMs
NOTAMs are issued by the DoD/FAA and will open in a separate window not controlled by AirNav.

 

 
 

Would you like to see your business listed on this page?

 If your business provides an interesting product or service to pilots, flight crews, aircraft, or users of the Pea Patch Aerodrome, you should consider listing it here.  To start the listing process, click on the button below
 
Add a business
 

Other Pages about Pea Patch Aerodrome

Update a link
 
Copyright © AirNav, LLC. All rights reserved. Privacy Policy  Contact